Time;durP1;ratioP1;P1;durP2;ratioP2;P2;SDS_P1;SDS_P2;PMS_P1;PMS_P2;Temp;Humidity;BMP_temperature;BMP_pressure;BME280_temperature;BME280_humidity;BME280_pressure;Samples;Min_cycle;Max_cycle;Signal;HPM_P1;HPM_P2
2023/12/11 00:00:30;;;;;;;;;90.00;71.33;;;;;3.90;62.20;99469.69;5109634;28;9387;-75
2023/12/11 00:03:19;;;;;;;;;94.75;76.00;;;;;3.88;62.41;99473.97;5109380;28;9344;-73
2023/12/11 00:05:48;;;;;;;;;92.25;74.75;;;;;3.87;62.46;99474.84;5109060;28;9723;-73
2023/12/11 00:08:17;;;;;;;;;91.00;74.00;;;;;3.86;62.39;99467.03;5109255;28;9550;-72
2023/12/11 00:10:47;;;;;;;;;83.33;67.67;;;;;3.90;62.13;99464.47;5109215;28;9370;-71
2023/12/11 00:13:16;;;;;;;;;90.00;68.33;;;;;3.83;63.12;99460.09;5059065;28;9305;-72
2023/12/11 00:15:45;;;;;;;;;87.75;68.75;;;;;3.77;63.02;99463.53;5109131;28;8971;-72
2023/12/11 00:18:14;;;;;;;;;83.67;66.67;;;;;3.80;62.70;99465.28;5108726;28;8848;-73
2023/12/11 00:20:43;;;;;;;;;81.00;64.75;;;;;3.79;62.75;99466.16;5074937;28;9040;-74
2023/12/11 00:23:12;;;;;;;;;80.50;62.75;;;;;3.80;62.56;99462.66;5108785;28;9635;-73
2023/12/11 00:25:47;;;;;;;;;80.25;64.25;;;;;3.81;62.78;99459.22;5108821;28;9874;-71
2023/12/11 00:28:17;;;;;;;;;78.50;62.25;;;;;3.72;63.38;99464.38;5108925;28;8851;-72
2023/12/11 00:30:46;;;;;;;;;77.75;62.25;;;;;3.74;63.03;99457.44;5110730;27;8840;-72
2023/12/11 00:33:15;;;;;;;;;81.00;65.50;;;;;3.73;62.54;99463.50;5132105;27;8872;-73
2023/12/11 00:35:46;;;;;;;;;78.75;61.00;;;;;3.73;62.67;99466.97;5133731;27;8827;-73
2023/12/11 00:38:14;;;;;;;;;75.25;61.25;;;;;3.71;63.30;99468.69;5152667;27;9601;-73
2023/12/11 00:40:45;;;;;;;;;78.25;61.50;;;;;3.74;62.50;99471.31;5152387;27;8869;-72
2023/12/11 00:43:15;;;;;;;;;79.50;62.00;;;;;3.77;62.79;99462.63;5100237;27;8982;-73
2023/12/11 00:45:45;;;;;;;;;76.75;61.50;;;;;3.73;62.57;99461.78;5152596;27;8877;-73
2023/12/11 00:48:13;;;;;;;;;70.50;57.25;;;;;3.77;62.58;99454.84;5099646;27;8867;-73
2023/12/11 00:50:43;;;;;;;;;75.25;58.75;;;;;3.82;62.38;99454.88;5133821;27;9610;-73
2023/12/11 00:53:12;;;;;;;;;71.75;57.50;;;;;3.76;62.33;99451.38;5133740;27;8861;-73
2023/12/11 00:55:41;;;;;;;;;69.75;57.75;;;;;3.75;62.33;99454.84;5152282;27;8837;-73
2023/12/11 00:58:10;;;;;;;;;61.75;51.00;;;;;3.74;62.89;99454.84;5115419;27;8849;-72
2023/12/11 01:00:40;;;;;;;;;65.00;52.25;;;;;3.75;62.40;99452.25;5152099;27;8828;-73
2023/12/11 01:03:09;;;;;;;;;68.75;55.50;;;;;3.74;62.43;99454.84;5152332;27;8837;-74
2023/12/11 01:05:38;;;;;;;;;69.00;55.75;;;;;3.76;62.09;99451.38;5152117;27;8861;-72
2023/12/11 01:08:07;;;;;;;;;67.50;56.00;;;;;3.75;62.66;99454.84;5152229;27;8853;-73
2023/12/11 01:10:36;;;;;;;;;70.00;56.25;;;;;3.74;62.18;99442.72;5133456;27;8844;-73
2023/12/11 01:13:05;;;;;;;;;69.50;57.25;;;;;3.66;62.70;99448.72;5152025;27;8959;-71
2023/12/11 01:15:34;;;;;;;;;65.75;51.00;;;;;3.58;63.05;99446.97;5151834;27;8833;-73
2023/12/11 01:18:05;;;;;;;;;64.25;51.75;;;;;3.54;63.22;99449.53;5151989;27;8868;-73
2023/12/11 01:20:34;;;;;;;;;66.50;52.50;;;;;3.24;64.37;99438.06;5151914;27;8853;-73
2023/12/11 01:23:03;;;;;;;;;56.25;47.00;;;;;3.24;64.37;99435.47;5151734;27;8876;-72
2023/12/11 01:25:32;;;;;;;;;59.25;47.25;;;;;3.29;64.32;99430.28;5151960;27;8905;-73
2023/12/11 01:28:01;;;;;;;;;56.00;45.50;;;;;3.36;63.60;99427.72;5151931;27;8869;-73
2023/12/11 01:30:30;;;;;;;;;52.00;43.00;;;;;3.45;63.88;99421.78;5151838;27;8840;-72
2023/12/11 01:32:59;;;;;;;;;57.75;48.00;;;;;3.47;63.17;99414.84;5081696;27;8874;-72
2023/12/11 01:35:30;;;;;;;;;57.50;47.00;;;;;3.55;63.16;99410.56;5151694;27;8845;-74
2023/12/11 01:37:58;;;;;;;;;61.75;47.00;;;;;3.63;63.13;99415.78;5151865;27;8929;-73
2023/12/11 01:40:28;;;;;;;;;60.75;50.75;;;;;3.70;62.50;99404.56;5151997;27;8953;-72
2023/12/11 01:42:56;;;;;;;;;64.50;53.00;;;;;3.73;62.61;99394.19;5150853;27;8833;-73
2023/12/11 01:45:39;;;;;;;;;62.50;50.75;;;;;3.77;61.83;99397.66;5151448;27;9626;-73
2023/12/11 01:48:10;;;;;;;;;59.50;49.00;;;;;3.79;61.93;99395.94;5151337;27;9598;-73
2023/12/11 01:50:41;;;;;;;;;61.50;50.50;;;;;3.83;61.57;99396.81;5151337;27;8825;-72
2023/12/11 01:53:10;;;;;;;;;60.75;49.25;;;;;3.83;62.04;99395.09;5151232;27;8963;-72
2023/12/11 01:55:39;;;;;;;;;55.50;47.50;;;;;3.83;61.49;99383.81;5151016;27;8852;-71
2023/12/11 01:58:08;;;;;;;;;53.50;44.75;;;;;3.83;61.69;99389.00;5150885;27;8865;-73
2023/12/11 02:00:38;;;;;;;;;54.25;46.50;;;;;3.81;61.51;99388.13;5150724;27;8883;-73
2023/12/11 02:03:06;;;;;;;;;53.25;43.25;;;;;3.73;61.60;99389.00;5150786;27;8844;-72
2023/12/11 02:05:36;;;;;;;;;62.50;48.25;;;;;3.64;62.15;99382.84;5151045;27;8843;-73
2023/12/11 02:08:06;;;;;;;;;57.50;47.00;;;;;3.72;61.64;99392.44;5150852;27;8921;-72
2023/12/11 02:10:36;;;;;;;;;57.75;43.75;;;;;3.73;62.15;99386.38;5150792;27;8881;-72
2023/12/11 02:13:05;;;;;;;;;51.75;46.00;;;;;3.78;61.64;99382.06;5150855;27;9609;-72
2023/12/11 02:15:39;;;;;;;;;51.00;45.00;;;;;3.86;61.75;99378.63;5150408;27;8869;-73
2023/12/11 02:18:08;;;;;;;;;48.00;43.75;;;;;3.74;61.42;99384.66;5098318;27;8965;-73
2023/12/11 02:20:40;;;;;;;;;46.50;38.50;;;;;3.62;61.82;99384.59;5098105;27;8981;-71
2023/12/11 02:23:18;;;;;;;;;58.50;47.25;;;;;3.55;61.74;99394.09;5150538;27;8857;-72
2023/12/11 02:25:59;;;;;;;;;48.25;43.50;;;;;3.47;61.62;99399.25;5150877;27;8941;-73
2023/12/11 02:28:29;;;;;;;;;52.50;45.25;;;;;3.53;61.61;99388.03;5150397;27;9433;-72
2023/12/11 02:30:58;;;;;;;;;51.00;44.25;;;;;3.53;61.21;99390.63;5150322;27;8852;-73
2023/12/11 02:33:27;;;;;;;;;47.75;42.25;;;;;3.57;61.10;99393.22;5150124;27;8849;-72
2023/12/11 02:35:56;;;;;;;;;48.50;42.75;;;;;3.61;60.79;99398.47;5150032;27;8833;-73
2023/12/11 02:38:25;;;;;;;;;42.00;36.75;;;;;3.65;60.38;99390.66;5097589;27;8865;-72
2023/12/11 02:40:55;;;;;;;;;48.75;43.25;;;;;3.67;60.67;99386.34;5150358;27;8869;-71
2023/12/11 02:43:24;;;;;;;;;53.00;42.75;;;;;3.68;60.58;99384.63;5150340;27;8868;-73
2023/12/11 02:45:54;;;;;;;;;42.75;38.00;;;;;3.69;60.61;99386.34;5150106;27;9671;-72
2023/12/11 02:48:23;;;;;;;;;51.50;42.00;;;;;3.52;60.63;99396.66;5149994;27;8852;-71
2023/12/11 02:50:52;;;;;;;;;47.25;43.25;;;;;3.54;60.18;99393.25;5150076;27;8909;-72
2023/12/11 02:53:21;;;;;;;;;39.50;39.00;;;;;3.55;59.95;99387.16;5149938;27;8837;-73
2023/12/11 02:55:50;;;;;;;;;53.25;46.00;;;;;3.56;60.64;99388.91;5149815;27;8994;-72
2023/12/11 02:58:19;;;;;;;;;47.75;42.00;;;;;3.53;60.06;99386.28;5131640;27;8949;-72
2023/12/11 03:00:48;;;;;;;;;48.25;42.25;;;;;3.52;59.97;99381.06;5131248;27;8829;-72
2023/12/11 03:03:19;;;;;;;;;55.75;43.75;;;;;3.52;59.92;99376.72;5149915;27;8844;-72
2023/12/11 03:05:48;;;;;;;;;21.00;15.00;;;;;3.50;60.04;99380.19;5096538;27;8848;-72
2023/12/11 03:08:17;;;;;;;;;46.50;41.50;;;;;3.34;60.19;99379.22;5149784;27;8841;-73
2023/12/11 03:10:46;;;;;;;;;52.00;41.00;;;;;3.18;60.39;99375.66;5149721;27;8853;-72
2023/12/11 03:13:18;;;;;;;;;51.25;43.25;;;;;3.22;60.73;99372.22;5149800;27;8891;-72
2023/12/11 03:15:47;;;;;;;;;52.25;44.50;;;;;3.25;60.26;99361.84;5149815;27;8918;-73
2023/12/11 03:18:16;;;;;;;;;54.50;44.75;;;;;3.29;59.98;99360.13;5131485;27;8849;-71
2023/12/11 03:20:47;;;;;;;;;45.75;42.25;;;;;3.35;59.87;99355.81;5149928;27;8853;-72
2023/12/11 03:23:15;;;;;;;;;42.25;41.00;;;;;3.35;59.71;99370.56;5150160;27;9623;-73
2023/12/11 03:25:45;;;;;;;;;62.25;50.75;;;;;3.28;59.57;99380.06;5149653;27;8857;-72
2023/12/11 03:28:13;;;;;;;;;70.00;57.00;;;;;2.87;61.09;99379.78;5149583;27;8841;-72
2023/12/11 03:30:43;;;;;;;;;61.00;49.75;;;;;2.84;60.57;99380.59;5149826;27;8845;-73
2023/12/11 03:33:12;;;;;;;;;67.00;54.75;;;;;2.91;60.01;99372.00;5097251;27;8941;-72
2023/12/11 03:35:41;;;;;;;;;60.75;51.50;;;;;2.95;60.29;99378.09;5149309;27;8857;-72
2023/12/11 03:38:11;;;;;;;;;66.75;54.00;;;;;3.01;60.64;99372.94;5149135;27;8857;-72
2023/12/11 03:40:41;;;;;;;;;57.75;46.00;;;;;3.02;60.35;99371.25;5149377;27;8849;-72
2023/12/11 03:43:10;;;;;;;;;59.75;47.75;;;;;2.80;60.14;99374.50;5149737;27;8845;-73
2023/12/11 03:45:40;;;;;;;;;54.25;46.25;;;;;2.55;60.95;99367.41;5149150;27;8839;-72
2023/12/11 03:48:09;;;;;;;;;51.00;45.50;;;;;2.55;60.91;99363.06;5130917;27;9554;-73
2023/12/11 03:50:38;;;;;;;;;60.25;49.25;;;;;2.56;60.61;99359.63;5149458;27;8870;-72
2023/12/11 03:53:07;;;;;;;;;57.50;48.00;;;;;2.60;60.50;99353.59;5149075;27;8855;-72
2023/12/11 03:55:38;;;;;;;;;56.00;46.75;;;;;2.66;60.51;99355.38;5079867;27;8889;-72
2023/12/11 03:58:07;;;;;;;;;58.50;45.75;;;;;2.67;60.68;99349.31;5096505;27;8889;-72
2023/12/11 04:00:36;;;;;;;;;53.50;44.75;;;;;2.71;60.74;99351.13;5149228;27;9679;-71
2023/12/11 04:03:05;;;;;;;;;51.75;46.00;;;;;2.75;60.84;99336.41;5096856;27;8909;-71
2023/12/11 04:05:34;;;;;;;;;51.75;43.25;;;;;2.73;60.22;99333.81;5150250;27;8848;-71
2023/12/11 04:08:03;;;;;;;;;55.75;46.75;;;;;2.72;60.73;99336.41;5152853;27;8968;-73
2023/12/11 04:10:32;;;;;;;;;60.25;49.50;;;;;2.68;60.51;99350.22;5116557;27;8833;-72
2023/12/11 04:13:03;;;;;;;;;54.00;45.50;;;;;2.61;60.47;99352.72;5153029;27;8880;-73
2023/12/11 04:15:33;;;;;;;;;53.00;45.00;;;;;2.65;59.93;99353.63;5099918;27;8861;-72
2023/12/11 04:18:01;;;;;;;;;52.00;44.00;;;;;2.60;60.15;99355.34;5152910;27;8837;-73
2023/12/11 04:20:31;;;;;;;;;55.25;44.00;;;;;2.57;59.71;99356.16;5153071;27;8877;-73
2023/12/11 04:23:00;;;;;;;;;51.00;43.50;;;;;2.58;59.39;99364.81;5153388;27;8864;-74
2023/12/11 04:25:29;;;;;;;;;49.50;41.75;;;;;2.55;59.17;99365.66;5100157;27;8849;-72
2023/12/11 04:27:57;;;;;;;;;48.50;41.00;;;;;2.54;59.46;99360.47;5153067;27;8853;-72
2023/12/11 04:30:28;;;;;;;;;43.00;39.00;;;;;2.54;59.61;99363.06;5152651;27;8849;-73
2023/12/11 04:32:57;;;;;;;;;48.25;43.50;;;;;2.52;59.68;99364.78;5153044;27;8864;-73
2023/12/11 04:35:26;;;;;;;;;49.50;42.00;;;;;2.47;59.17;99356.97;5152585;27;8967;-72
2023/12/11 04:37:55;;;;;;;;;40.25;37.50;;;;;2.44;59.61;99358.66;5152840;27;8845;-72
2023/12/11 04:40:24;;;;;;;;;40.25;39.00;;;;;2.38;59.38;99357.72;5152498;27;8833;-73
2023/12/11 04:42:52;;;;;;;;;46.25;41.00;;;;;2.39;59.64;99354.31;5152586;27;8857;-73
2023/12/11 04:45:21;;;;;;;;;51.00;44.00;;;;;2.37;59.58;99344.75;5152598;27;8884;-72
2023/12/11 04:47:51;;;;;;;;;48.50;42.00;;;;;2.41;59.16;99343.94;5133774;27;8991;-73
2023/12/11 04:50:20;;;;;;;;;73.50;56.25;;;;;2.36;58.98;99350.81;5152971;27;8833;-73
2023/12/11 04:52:49;;;;;;;;;44.75;41.75;;;;;2.36;59.02;99351.66;5133936;27;8879;-72
2023/12/11 04:55:18;;;;;;;;;58.25;49.75;;;;;2.31;59.36;99355.06;5152167;27;8925;-72
2023/12/11 04:57:47;;;;;;;;;46.00;40.25;;;;;1.91;61.49;99365.03;5152759;27;8949;-72
2023/12/11 05:00:17;;;;;;;;;60.25;51.00;;;;;1.81;61.42;99366.66;5152244;27;8841;-73
2023/12/11 05:02:46;;;;;;;;;55.50;47.25;;;;;1.91;60.86;99372.81;5151962;27;8828;-72
2023/12/11 05:05:17;;;;;;;;;57.25;47.75;;;;;1.98;60.86;99367.72;5098980;27;8880;-74
2023/12/11 05:07:45;;;;;;;;;52.00;45.25;;;;;2.04;60.13;99359.13;5152115;27;8960;-71
2023/12/11 05:10:14;;;;;;;;;71.00;56.00;;;;;2.07;59.77;99353.09;5151894;27;8920;-71
2023/12/11 05:12:44;;;;;;;;;66.75;51.75;;;;;2.10;59.58;99366.97;5152059;27;8918;-73
2023/12/11 05:15:13;;;;;;;;;64.50;52.75;;;;;2.11;59.88;99370.44;5151787;27;8883;-73
2023/12/11 05:17:42;;;;;;;;;60.00;49.25;;;;;2.14;59.85;99371.31;5151736;27;8849;-75
2023/12/11 05:20:12;;;;;;;;;62.00;48.50;;;;;2.17;59.43;99365.31;5133059;27;8844;-73
2023/12/11 05:22:43;;;;;;;;;54.25;45.75;;;;;2.24;59.39;99364.53;5151887;27;8887;-73
2023/12/11 05:25:12;;;;;;;;;59.00;47.75;;;;;2.15;59.57;99354.06;5151677;27;8853;-74
2023/12/11 05:27:41;;;;;;;;;55.00;47.00;;;;;2.12;58.89;99352.28;5151258;27;8906;-72
2023/12/11 05:30:11;;;;;;;;;39.75;38.00;;;;;2.15;59.59;99349.75;5151709;27;8871;-74
2023/12/11 05:32:41;;;;;;;;;79.00;60.00;;;;;2.14;59.97;99357.50;5151518;27;8833;-73
2023/12/11 05:35:10;;;;;;;;;65.75;52.75;;;;;2.13;59.51;99348.84;5151159;27;8833;-75
2023/12/11 05:37:39;;;;;;;;;61.25;49.00;;;;;2.18;59.63;99335.91;5115523;27;8926;-73
2023/12/11 05:40:11;;;;;;;;;60.25;49.25;;;;;2.21;60.04;99323.00;5132800;27;8864;-73
2023/12/11 05:42:51;;;;;;;;;51.75;45.75;;;;;2.21;60.23;99305.69;5118794;27;9684;-71
2023/12/11 05:45:20;;;;;;;;;62.25;51.50;;;;;2.26;59.56;99294.50;5151148;27;8825;-72
2023/12/11 05:47:49;;;;;;;;;36.25;31.75;;;;;2.26;60.37;99295.38;5150624;27;8823;-73
2023/12/11 05:50:19;;;;;;;;;49.75;43.50;;;;;2.29;60.13;99290.22;5151196;27;8866;-72
2023/12/11 05:52:48;;;;;;;;;42.75;39.25;;;;;2.34;60.52;99285.06;5151165;27;8983;-72
2023/12/11 05:55:18;;;;;;;;;43.00;40.50;;;;;2.41;60.00;99287.72;5151186;27;8871;-74
2023/12/11 05:57:47;;;;;;;;;38.25;34.50;;;;;2.40;61.07;99285.97;5079793;27;8881;-72
2023/12/11 06:00:17;;;;;;;;;43.00;38.00;;;;;2.47;61.00;99273.94;5148860;27;8919;-73
2023/12/11 06:02:46;;;;;;;;;54.50;44.00;;;;;2.40;61.66;99270.41;5076304;27;8834;-73
2023/12/11 06:05:16;;;;;;;;;40.25;37.75;;;;;2.49;61.06;99276.56;5129819;27;8863;-72
2023/12/11 06:07:44;;;;;;;;;27.20;27.20;;;;;2.50;62.33;99283.47;5129382;27;8888;-74
2023/12/11 06:10:14;;;;;;;;;68.50;55.25;;;;;2.41;62.16;99294.66;5130002;27;8830;-73
2023/12/11 06:12:44;;;;;;;;;71.25;58.00;;;;;2.10;62.05;99303.88;5114080;27;8815;-74
2023/12/11 06:15:13;;;;;;;;;63.25;54.00;;;;;2.07;61.71;99309.03;5031588;27;8855;-72
2023/12/11 06:17:42;;;;;;;;;77.50;62.75;;;;;2.25;61.96;99314.38;5149954;27;8852;-72
2023/12/11 06:20:12;;;;;;;;;69.25;57.25;;;;;2.41;60.87;99311.06;5149702;27;8832;-73
2023/12/11 06:22:41;;;;;;;;;79.75;62.25;;;;;2.54;61.31;99316.34;5146105;27;8858;-72
2023/12/11 06:25:10;;;;;;;;;83.00;62.25;;;;;2.64;60.23;99304.31;5140950;27;8867;-72
2023/12/11 06:27:39;;;;;;;;;82.75;66.00;;;;;2.71;59.99;99307.00;5131867;27;8966;-72
2023/12/11 06:30:11;;;;;;;;;88.33;69.33;;;;;2.69;59.67;99310.41;5095643;27;8878;-74
2023/12/11 06:32:39;;;;;;;;;84.75;66.50;;;;;2.57;59.77;99329.34;5129560;27;9153;-74
2023/12/11 06:35:09;;;;;;;;;67.00;55.00;;;;;2.55;60.19;99338.84;5129631;27;8845;-73
2023/12/11 06:37:38;;;;;;;;;72.25;58.00;;;;;2.48;60.07;99343.13;5109957;27;8880;-73
2023/12/11 06:40:09;;;;;;;;;60.25;51.00;;;;;2.63;60.29;99338.91;5129647;27;8841;-74
2023/12/11 06:42:38;;;;;;;;;76.25;60.50;;;;;2.70;60.07;99322.53;5129318;27;9597;-74
2023/12/11 06:45:12;;;;;;;;;79.25;62.25;;;;;2.80;60.00;99319.16;5129191;27;9646;-73
2023/12/11 06:47:41;;;;;;;;;84.00;67.67;;;;;2.91;59.59;99308.84;5110660;27;8976;-77
2023/12/11 06:50:10;;;;;;;;;73.50;58.25;;;;;3.00;59.91;99308.91;5129370;27;9014;-74
2023/12/11 06:52:39;;;;;;;;;71.75;56.50;;;;;2.93;59.70;99318.38;5095782;27;8964;-73
2023/12/11 06:55:09;;;;;;;;;65.25;52.25;;;;;2.89;60.07;99315.75;5145544;27;9612;-76
2023/12/11 06:57:38;;;;;;;;;65.75;54.75;;;;;2.94;59.85;99319.22;5117037;27;9710;-74
2023/12/11 07:00:09;;;;;;;;;53.75;42.75;;;;;2.93;60.96;99313.19;5148554;27;8874;-74
2023/12/11 07:02:40;;;;;;;;;57.75;48.25;;;;;3.07;60.12;99309.78;5149665;27;9120;-73
2023/12/11 07:05:09;;;;;;;;;62.75;51.00;;;;;3.22;60.00;99309.88;5130496;27;8851;-74
2023/12/11 07:07:38;;;;;;;;;70.50;56.25;;;;;3.40;60.60;99303.91;5123239;27;8854;-73
2023/12/11 07:10:08;;;;;;;;;77.25;61.50;;;;;3.57;60.28;99304.88;5110091;27;8856;-74
2023/12/11 07:12:40;;;;;;;;;78.25;61.25;;;;;3.71;59.60;99289.31;5111818;27;8881;-72
2023/12/11 07:15:10;;;;;;;;;54.25;45.25;;;;;3.86;59.66;99288.47;5149225;27;8860;-72
2023/12/11 07:17:40;;;;;;;;;40.75;37.25;;;;;3.88;60.38;99286.75;5134369;27;8861;-73
2023/12/11 07:20:11;;;;;;;;;39.00;36.00;;;;;4.03;60.34;99283.31;5149284;27;8840;-73
2023/12/11 07:22:40;;;;;;;;;38.60;35.40;;;;;4.09;60.06;99288.53;5149400;27;8872;-72
2023/12/11 07:25:09;;;;;;;;;39.60;34.40;;;;;4.18;59.81;99280.72;5091825;28;8853;-73
2023/12/11 07:27:38;;;;;;;;;37.00;30.80;;;;;4.34;60.23;99276.41;5108181;28;8880;-72
2023/12/11 07:30:08;;;;;;;;;36.20;31.60;;;;;4.44;59.78;99266.84;5107539;28;8833;-74
2023/12/11 07:32:40;;;;;;;;;26.40;23.80;;;;;4.58;59.27;99269.44;5071687;28;8829;-72
2023/12/11 07:35:11;;;;;;;;;35.80;32.80;;;;;4.67;58.92;99263.38;5108096;28;8841;-71
2023/12/11 07:37:42;;;;;;;;;52.00;43.25;;;;;4.75;58.42;99265.09;5089116;28;8903;-72
2023/12/11 07:40:12;;;;;;;;;42.75;39.75;;;;;4.90;58.25;99256.34;5107428;28;8869;-73
2023/12/11 07:42:41;;;;;;;;;44.60;38.20;;;;;5.02;57.96;99242.47;5094274;28;8827;-72
2023/12/11 07:45:11;;;;;;;;;48.25;43.25;;;;;5.17;57.57;99238.03;5106487;28;9645;-71
2023/12/11 07:47:41;;;;;;;;;68.75;55.00;;;;;4.92;57.95;99241.63;5106307;28;8872;-72
2023/12/11 07:50:11;;;;;;;;;32.40;31.60;;;;;5.00;57.57;99238.09;5101647;28;8835;-72
2023/12/11 07:52:41;;;;;;;;;27.00;26.40;;;;;5.07;57.21;99235.47;5107593;28;8968;-74
2023/12/11 07:55:10;;;;;;;;;25.40;24.00;;;;;5.10;57.18;99218.97;5106827;28;8887;-72
2023/12/11 07:57:40;;;;;;;;;20.20;19.40;;;;;5.07;56.71;99209.41;5111827;28;8845;-74
2023/12/11 08:00:11;;;;;;;;;23.60;21.40;;;;;5.03;56.54;99207.69;5111485;28;8837;-75
2023/12/11 08:02:42;;;;;;;;;20.80;20.80;;;;;5.15;56.50;99198.97;5111577;28;9692;-72
2023/12/11 08:05:11;;;;;;;;;23.00;21.60;;;;;5.28;56.49;99202.38;5110968;28;8833;-73
2023/12/11 08:07:40;;;;;;;;;23.80;20.00;;;;;5.44;56.09;99208.44;5111846;28;8873;-73
2023/12/11 08:10:10;;;;;;;;;20.00;19.20;;;;;5.59;55.57;99203.13;5092062;28;8857;-74
2023/12/11 08:12:39;;;;;;;;;18.40;17.40;;;;;5.71;55.25;99202.19;5111435;28;8856;-72
2023/12/11 08:15:09;;;;;;;;;20.20;19.00;;;;;5.86;54.23;99194.25;5075995;28;8853;-72
2023/12/11 08:17:38;;;;;;;;;26.60;23.40;;;;;5.96;54.48;99196.78;5095843;28;8845;-73
2023/12/11 08:20:11;;;;;;;;;18.80;17.60;;;;;6.15;53.92;99205.31;5075537;28;8856;-74
2023/12/11 08:22:41;;;;;;;;;24.60;19.80;;;;;6.22;53.19;99204.41;5093633;28;8839;-73
2023/12/11 08:25:11;;;;;;;;;20.60;20.60;;;;;6.42;53.52;99194.66;5133754;27;8931;-73
2023/12/11 08:27:41;;;;;;;;;23.60;21.60;;;;;6.49;53.19;99185.88;5148114;27;8859;-73
2023/12/11 08:30:12;;;;;;;;;22.60;21.80;;;;;6.47;52.73;99185.03;5139222;27;8923;-73
2023/12/11 08:32:41;;;;;;;;;23.00;19.20;;;;;6.39;52.40;99199.03;5115016;27;8865;-72
2023/12/11 08:35:12;;;;;;;;;22.40;19.60;;;;;6.40;52.52;99201.63;5152258;27;8939;-72
2023/12/11 08:37:40;;;;;;;;;19.60;18.00;;;;;6.52;51.87;99203.25;5151077;27;8878;-72
2023/12/11 08:40:10;;;;;;;;;19.80;18.80;;;;;6.54;52.30;99198.00;5082119;27;8851;-74
2023/12/11 08:42:40;;;;;;;;;22.40;19.00;;;;;6.58;51.62;99204.94;5049333;27;8900;-73
2023/12/11 08:45:10;;;;;;;;;17.80;17.40;;;;;6.51;51.69;99193.66;5138152;27;8847;-72
2023/12/11 08:47:41;;;;;;;;;21.60;19.60;;;;;6.28;52.34;99120.81;5089046;27;8880;-72
2023/12/11 08:50:14;;;;;;;;;22.00;20.80;;;;;5.94;52.93;99113.31;5078998;27;8917;-73
2023/12/11 08:52:44;;;;;;;;;18.60;17.60;;;;;5.99;53.38;99153.28;5145302;27;8859;-72
2023/12/11 08:55:13;;;;;;;;;15.00;14.80;;;;;6.18;52.97;99187.91;5138092;27;8846;-73
2023/12/11 08:57:43;;;;;;;;;16.80;16.80;;;;;6.29;52.07;99193.03;5137401;27;8847;-73
2023/12/11 09:00:14;;;;;;;;;22.20;19.00;;;;;6.36;51.83;99184.28;5151281;27;8966;-73
2023/12/11 09:02:43;;;;;;;;;12.80;12.20;;;;;6.35;52.02;99177.31;5151326;27;8831;-72
2023/12/11 09:05:14;;;;;;;;;30.40;30.00;;;;;6.31;52.34;99166.03;5137434;27;8831;-73
2023/12/11 09:07:43;;;;;;;;;32.20;30.20;;;;;6.07;52.71;99174.06;5137645;27;8849;-73
2023/12/11 09:10:12;;;;;;;;;26.00;23.60;;;;;5.97;53.27;99167.22;5127931;27;8837;-73
2023/12/11 09:12:41;;;;;;;;;21.60;19.40;;;;;5.99;53.29;99171.53;5143853;27;8931;-73
2023/12/11 09:15:11;;;;;;;;;28.20;28.20;;;;;5.86;53.25;99190.78;5151673;27;8839;-73
2023/12/11 09:17:40;;;;;;;;;25.00;24.60;;;;;5.86;53.99;99170.75;5151060;27;8843;-73
2023/12/11 09:20:10;;;;;;;;;27.00;25.60;;;;;6.11;53.76;99157.50;5151125;27;8847;-71
2023/12/11 09:22:41;;;;;;;;;25.40;23.00;;;;;6.26;52.89;99146.94;5146112;27;8875;-73
2023/12/11 09:25:11;;;;;;;;;22.00;20.60;;;;;6.32;52.71;99149.50;5112141;27;8885;-72
2023/12/11 09:27:40;;;;;;;;;30.20;28.40;;;;;6.50;52.42;99137.97;5147835;27;8866;-73
2023/12/11 09:30:10;;;;;;;;;30.20;25.60;;;;;6.65;51.04;99128.25;5151386;27;8966;-73
2023/12/11 09:32:39;;;;;;;;;23.40;21.60;;;;;6.84;51.14;99121.91;5076729;27;8849;-73
2023/12/11 09:35:09;;;;;;;;;14.00;14.00;;;;;6.86;50.05;99127.97;5130272;27;8857;-73
2023/12/11 09:37:39;;;;;;;;;24.20;23.40;;;;;6.82;50.38;99128.91;5130192;27;8838;-73
2023/12/11 09:40:12;;;;;;;;;23.80;23.60;;;;;6.78;49.87;99128.97;5141925;27;8865;-73
2023/12/11 09:42:43;;;;;;;;;28.00;26.00;;;;;6.59;51.01;99136.16;5139118;27;8980;-71
2023/12/11 09:45:15;;;;;;;;;27.20;24.40;;;;;7.13;50.56;99135.53;5137650;27;8966;-72
2023/12/11 09:47:47;;;;;;;;;34.00;31.60;;;;;7.34;51.08;99121.28;5132337;27;8847;-73
2023/12/11 09:50:19;;;;;;;;;42.80;37.80;;;;;7.58;50.40;99123.53;5150951;27;8847;-73
2023/12/11 09:52:51;;;;;;;;;36.80;32.20;;;;;7.90;50.24;99116.06;5150875;27;8851;-73
2023/12/11 09:55:22;;;;;;;;;43.25;37.00;;;;;8.02;49.38;99100.13;5132039;27;8886;-72
2023/12/11 09:57:52;;;;;;;;;35.20;33.80;;;;;8.25;48.98;99091.84;5150227;27;8887;-72
2023/12/11 10:00:22;;;;;;;;;31.80;30.80;;;;;8.12;48.18;99091.22;5150723;27;8840;-73
2023/12/11 10:02:52;;;;;;;;;35.00;30.20;;;;;8.44;48.23;99087.19;5133620;27;8845;-72
2023/12/11 10:05:25;;;;;;;;;36.00;32.80;;;;;8.49;47.20;99087.06;5129610;27;8900;-74
2023/12/11 10:07:54;;;;;;;;;36.60;35.00;;;;;8.12;47.50;99092.97;5106057;27;8847;-72
2023/12/11 10:10:27;;;;;;;;;37.80;35.80;;;;;8.44;48.03;99082.81;5150187;27;8827;-72
2023/12/11 10:12:57;;;;;;;;;45.60;38.80;;;;;8.57;48.24;99070.31;5141618;27;10030;-73
2023/12/11 10:15:29;;;;;;;;;37.20;35.00;;;;;8.53;46.65;99062.53;5129376;27;8845;-73
2023/12/11 10:18:09;;;;;;;;;32.20;26.80;;;;;8.56;46.73;99047.63;5129842;27;8885;-72
2023/12/11 10:20:41;;;;;;;;;34.20;31.40;;;;;8.25;47.57;99048.22;5131061;27;8935;-72
2023/12/11 10:23:15;;;;;;;;;31.20;28.20;;;;;8.56;46.21;99049.41;5134307;27;8964;-72
2023/12/11 10:25:49;;;;;;;;;32.20;30.20;;;;;8.60;45.98;99049.28;5135053;27;8883;-72
2023/12/11 10:28:20;;;;;;;;;27.00;23.80;;;;;8.47;45.19;99047.81;5130691;27;8866;-72
2023/12/11 10:30:51;;;;;;;;;18.40;17.00;;;;;8.39;45.23;99041.88;5149726;27;9610;-74
2023/12/11 10:33:21;;;;;;;;;33.00;31.40;;;;;8.25;45.50;99032.50;5124064;27;8860;-73
2023/12/11 10:35:51;;;;;;;;;27.40;24.80;;;;;8.57;46.44;99030.16;5143935;27;8848;-75
2023/12/11 10:38:24;;;;;;;;;27.20;25.80;;;;;8.73;46.18;99028.94;5149680;27;8859;-72
2023/12/11 10:40:56;;;;;;;;;29.20;27.60;;;;;8.80;45.42;99029.66;5149821;27;8862;-75
2023/12/11 10:43:25;;;;;;;;;26.20;21.60;;;;;9.07;44.42;99036.03;5097111;27;8863;-71
2023/12/11 10:45:55;;;;;;;;;31.80;25.80;;;;;9.18;45.20;99033.19;5120839;27;8972;-72
2023/12/11 10:48:24;;;;;;;;;32.20;29.60;;;;;9.17;46.36;99036.69;5139368;27;8943;-72
2023/12/11 10:50:53;;;;;;;;;33.20;32.60;;;;;9.32;46.18;99040.72;5134624;27;8864;-72
2023/12/11 10:53:23;;;;;;;;;30.40;30.00;;;;;9.34;46.24;99037.13;5144628;27;8871;-74
2023/12/11 10:55:53;;;;;;;;;51.75;44.75;;;;;9.35;47.41;99038.88;5109906;27;9987;-71
2023/12/11 10:58:25;;;;;;;;;52.50;41.75;;;;;9.34;47.90;99033.66;5134277;27;8849;-73
2023/12/11 11:00:56;;;;;;;;;51.00;41.25;;;;;9.36;48.15;99043.22;5148982;27;8843;-73
2023/12/11 11:03:26;;;;;;;;;53.25;43.75;;;;;9.43;47.88;99049.19;5127285;27;8837;-72
2023/12/11 11:05:56;;;;;;;;;52.75;42.25;;;;;9.50;47.84;99057.75;5145239;27;8850;-73
2023/12/11 11:08:34;;;;;;;;;51.50;43.50;;;;;9.50;47.90;99065.63;5134979;27;8842;-73
2023/12/11 11:11:11;;;;;;;;;46.00;38.50;;;;;9.54;47.50;99062.06;5138676;27;8899;-73
2023/12/11 11:13:56;;;;;;;;;40.60;34.60;;;;;9.47;46.95;99068.34;5113088;27;8919;-73
2023/12/11 11:16:52;;;;;;;;;31.60;27.00;;;;;9.55;46.42;99054.13;5149479;27;8851;-72
2023/12/11 11:19:21;;;;;;;;;30.60;27.20;;;;;9.42;46.13;99045.72;5081570;27;8995;-73
2023/12/11 11:22:20;;;;;;;;;26.00;22.80;;;;;9.62;46.00;99026.00;5140716;27;8938;-73
2023/12/11 11:25:31;;;;;;;;;27.80;27.00;;;;;9.67;45.97;99002.25;4994836;28;8881;-73
2023/12/11 11:28:01;;;;;;;;;31.40;29.60;;;;;9.50;45.74;98995.66;5024614;28;8856;-73
2023/12/11 11:30:53;;;;;;;;;32.40;31.80;;;;;9.51;45.20;98980.78;5032837;28;8861;-72
2023/12/11 11:33:23;;;;;;;;;31.00;28.80;;;;;9.22;44.85;98983.22;5011616;28;8862;-73
2023/12/11 11:35:53;;;;;;;;;24.80;24.60;;;;;9.29;44.92;98996.19;5041624;28;9245;-72
2023/12/11 11:38:52;;;;;;;;;32.00;29.40;;;;;9.39;44.74;98997.69;5025122;28;8926;-72
2023/12/11 11:41:25;;;;;;;;;23.20;21.00;;;;;9.35;45.01;99003.94;5024627;28;8864;-73
2023/12/11 11:43:59;;;;;;;;;29.20;27.60;;;;;9.42;45.21;99001.13;5030731;28;8860;-73
2023/12/11 11:46:47;;;;;;;;;27.40;25.20;;;;;9.49;45.05;99006.19;5023905;28;10027;-73
2023/12/11 11:49:31;;;;;;;;;32.20;30.60;;;;;9.65;45.04;98996.19;5037358;28;8845;-73